sensor_id;sensor_type;location;lat;lon;timestamp;pressure;altitude;pressure_sealevel;temperature;humidity
74474;BME280;62922;-6.168;106.796;2023-03-01T00:02:01;101143.63;;;28.53;75.85
74474;BME280;62922;-6.168;106.796;2023-03-01T00:04:26;101157.41;;;28.49;75.86
74474;BME280;62922;-6.168;106.796;2023-03-01T00:06:53;101160.22;;;28.49;75.65
74474;BME280;62922;-6.168;106.796;2023-03-01T00:09:19;101167.78;;;28.49;76.19
74474;BME280;62922;-6.168;106.796;2023-03-01T00:11:47;101176.53;;;28.47;75.82
74474;BME280;62922;-6.168;106.796;2023-03-01T00:14:13;101181.00;;;28.48;75.69
74474;BME280;62922;-6.168;106.796;2023-03-01T00:16:42;101184.94;;;28.47;75.62
74474;BME280;62922;-6.168;106.796;2023-03-01T00:19:11;101181.84;;;28.49;75.81
74474;BME280;62922;-6.168;106.796;2023-03-01T00:21:37;101182.16;;;28.47;75.63
74474;BME280;62922;-6.168;106.796;2023-03-01T00:24:03;101195.88;;;28.49;75.45
74474;BME280;62922;-6.168;106.796;2023-03-01T00:26:29;101190.56;;;28.47;75.63
74474;BME280;62922;-6.168;106.796;2023-03-01T00:28:56;101185.75;;;28.48;75.14
74474;BME280;62922;-6.168;106.796;2023-03-01T00:31:22;101187.75;;;28.47;75.39
74474;BME280;62922;-6.168;106.796;2023-03-01T00:33:51;101184.94;;;28.47;75.15
74474;BME280;62922;-6.168;106.796;2023-03-01T00:36:20;101184.94;;;28.47;75.60
74474;BME280;62922;-6.168;106.796;2023-03-01T00:38:46;101194.19;;;28.48;74.99
74474;BME280;62922;-6.168;106.796;2023-03-01T00:41:14;101186.59;;;28.48;74.98
74474;BME280;62922;-6.168;106.796;2023-03-01T00:43:40;101186.59;;;28.48;75.06
74474;BME280;62922;-6.168;106.796;2023-03-01T00:46:07;101180.16;;;28.48;74.73
74474;BME280;62922;-6.168;106.796;2023-03-01T00:48:33;101191.09;;;28.49;75.15
74474;BME280;62922;-6.168;106.796;2023-03-01T00:53:28;101203.97;;;28.50;74.31
74474;BME280;62922;-6.168;106.796;2023-03-01T00:55:54;101209.28;;;28.52;74.59
74474;BME280;62922;-6.168;106.796;2023-03-01T00:58:22;101209.59;;;28.50;74.97
74474;BME280;62922;-6.168;106.796;2023-03-01T01:00:48;101212.41;;;28.50;74.91
74474;BME280;62922;-6.168;106.796;2023-03-01T01:03:13;101218.00;;;28.50;74.61
74474;BME280;62922;-6.168;106.796;2023-03-01T01:05:39;101226.44;;;28.50;74.69
74474;BME280;62922;-6.168;106.796;2023-03-01T01:08:08;101232.06;;;28.50;74.54
74474;BME280;62922;-6.168;106.796;2023-03-01T01:10:34;101236.00;;;28.49;74.54
74474;BME280;62922;-6.168;106.796;2023-03-01T01:13:03;101239.63;;;28.50;74.87
74474;BME280;62922;-6.168;106.796;2023-03-01T01:15:32;101246.41;;;28.49;74.79
74474;BME280;62922;-6.168;106.796;2023-03-01T01:17:58;101250.84;;;28.50;74.56
74474;BME280;62922;-6.168;106.796;2023-03-01T01:20:24;101242.75;;;28.48;74.96
74474;BME280;62922;-6.168;106.796;2023-03-01T01:22:50;101237.13;;;28.48;74.58
74474;BME280;62922;-6.168;106.796;2023-03-01T01:25:16;101233.47;;;28.48;75.02
74474;BME280;62922;-6.168;106.796;2023-03-01T01:27:42;101233.22;;;28.49;74.86
74474;BME280;62922;-6.168;106.796;2023-03-01T01:30:08;101233.22;;;28.49;74.65
74474;BME280;62922;-6.168;106.796;2023-03-01T01:32:34;101235.69;;;28.51;74.82
74474;BME280;62922;-6.168;106.796;2023-03-01T01:35:00;101243.28;;;28.50;74.94
74474;BME280;62922;-6.168;106.796;2023-03-01T01:37:26;101237.66;;;28.50;74.27
74474;BME280;62922;-6.168;106.796;2023-03-01T01:39:57;101246.94;;;28.51;74.67
74474;BME280;62922;-6.168;106.796;2023-03-01T01:42:24;101246.94;;;28.51;74.45
74474;BME280;62922;-6.168;106.796;2023-03-01T01:47:20;101249.75;;;28.51;74.55
74474;BME280;62922;-6.168;106.796;2023-03-01T01:49:55;101258.16;;;28.51;74.93
74474;BME280;62922;-6.168;106.796;2023-03-01T01:57:16;101255.06;;;28.52;74.32
74474;BME280;62922;-6.168;106.796;2023-03-01T01:59:45;101256.44;;;28.55;74.20
74474;BME280;62922;-6.168;106.796;2023-03-01T02:02:12;101265.69;;;28.55;73.77
74474;BME280;62922;-6.168;106.796;2023-03-01T02:04:39;101268.19;;;28.57;74.27
74474;BME280;62922;-6.168;106.796;2023-03-01T02:07:07;101258.94;;;28.56;73.80
74474;BME280;62922;-6.168;106.796;2023-03-01T02:09:34;101258.94;;;28.56;73.63
74474;BME280;62922;-6.168;106.796;2023-03-01T02:12:01;101256.44;;;28.55;74.15
74474;BME280;62922;-6.168;106.796;2023-03-01T02:14:28;101254.75;;;28.54;74.49
74474;BME280;62922;-6.168;106.796;2023-03-01T02:16:54;101261.53;;;28.53;74.45
74474;BME280;62922;-6.168;106.796;2023-03-01T02:19:59;101253.91;;;28.53;74.60
74474;BME280;62922;-6.168;106.796;2023-03-01T02:22:15;101262.06;;;28.55;74.28
74474;BME280;62922;-6.168;106.796;2023-03-01T02:27:11;101262.06;;;28.55;74.16
74474;BME280;62922;-6.168;106.796;2023-03-01T02:29:37;101253.63;;;28.55;73.99
74474;BME280;62922;-6.168;106.796;2023-03-01T02:32:03;101258.09;;;28.56;73.99
74474;BME280;62922;-6.168;106.796;2023-03-01T02:34:30;101250.22;;;28.58;73.60
74474;BME280;62922;-6.168;106.796;2023-03-01T02:37:00;101247.41;;;28.58;73.49
74474;BME280;62922;-6.168;106.796;2023-03-01T02:39:35;101255.50;;;28.59;74.11
74474;BME280;62922;-6.168;106.796;2023-03-01T02:42:03;101245.97;;;28.60;74.44
74474;BME280;62922;-6.168;106.796;2023-03-01T02:44:32;101252.38;;;28.61;74.30
74474;BME280;62922;-6.168;106.796;2023-03-01T02:46:58;101253.22;;;28.61;74.58
74474;BME280;62922;-6.168;106.796;2023-03-01T02:49:27;101257.69;;;28.62;74.57
74474;BME280;62922;-6.168;106.796;2023-03-01T02:54:26;101245.34;;;28.63;74.50
74474;BME280;62922;-6.168;106.796;2023-03-01T02:56:56;101236.91;;;28.63;74.48
74474;BME280;62922;-6.168;106.796;2023-03-01T02:59:24;101239.41;;;28.65;74.64
74474;BME280;62922;-6.168;106.796;2023-03-01T03:01:54;101234.63;;;28.65;74.42
74474;BME280;62922;-6.168;106.796;2023-03-01T03:04:20;101231.50;;;28.67;74.51
74474;BME280;62922;-6.168;106.796;2023-03-01T03:06:47;101229.53;;;28.67;74.34
74474;BME280;62922;-6.168;106.796;2023-03-01T03:09:14;101212.69;;;28.67;74.46
74474;BME280;62922;-6.168;106.796;2023-03-01T03:11:40;101217.47;;;28.67;74.73
74474;BME280;62922;-6.168;106.796;2023-03-01T03:14:07;101211.84;;;28.67;74.65
74474;BME280;62922;-6.168;106.796;2023-03-01T03:16:40;101219.44;;;28.66;74.53
74474;BME280;62922;-6.168;106.796;2023-03-01T03:19:06;101222.25;;;28.66;74.13
74474;BME280;62922;-6.168;106.796;2023-03-01T03:21:32;101213.81;;;28.66;74.43
74474;BME280;62922;-6.168;106.796;2023-03-01T03:23:58;101205.41;;;28.66;74.57
74474;BME280;62922;-6.168;106.796;2023-03-01T03:26:24;101216.63;;;28.66;74.20
74474;BME280;62922;-6.168;106.796;2023-03-01T03:28:50;101220.28;;;28.67;73.91
74474;BME280;62922;-6.168;106.796;2023-03-01T03:31:19;101207.09;;;28.67;74.45
74474;BME280;62922;-6.168;106.796;2023-03-01T03:33:45;101201.78;;;28.66;74.08
74474;BME280;62922;-6.168;106.796;2023-03-01T03:36:19;101220.28;;;28.67;74.46
74474;BME280;62922;-6.168;106.796;2023-03-01T03:38:45;101216.31;;;28.68;74.38
74474;BME280;62922;-6.168;106.796;2023-03-01T03:41:12;101208.22;;;28.66;74.37
74474;BME280;62922;-6.168;106.796;2023-03-01T03:43:39;101209.03;;;28.67;74.35
74474;BME280;62922;-6.168;106.796;2023-03-01T03:46:05;101211.53;;;28.68;74.33
74474;BME280;62922;-6.168;106.796;2023-03-01T03:48:36;101204.81;;;28.69;74.18
74474;BME280;62922;-6.168;106.796;2023-03-01T03:51:04;101198.03;;;28.70;74.17
74474;BME280;62922;-6.168;106.796;2023-03-01T03:53:31;101192.41;;;28.70;73.98
74474;BME280;62922;-6.168;106.796;2023-03-01T03:55:57;101191.25;;;28.71;74.03
74474;BME280;62922;-6.168;106.796;2023-03-01T03:58:24;101188.16;;;28.73;74.18
74474;BME280;62922;-6.168;106.796;2023-03-01T04:00:51;101188.69;;;28.75;74.22
74474;BME280;62922;-6.168;106.796;2023-03-01T04:03:18;101181.06;;;28.75;73.99
74474;BME280;62922;-6.168;106.796;2023-03-01T04:05:45;101183.56;;;28.77;74.21
74474;BME280;62922;-6.168;106.796;2023-03-01T04:08:11;101168.41;;;28.78;74.13
74474;BME280;62922;-6.168;106.796;2023-03-01T04:10:38;101173.69;;;28.80;74.00
74474;BME280;62922;-6.168;106.796;2023-03-01T04:13:06;101170.25;;;28.83;73.88
74474;BME280;62922;-6.168;106.796;2023-03-01T04:15:35;101166.31;;;28.84;73.68
74474;BME280;62922;-6.168;106.796;2023-03-01T04:18:04;101164.03;;;28.86;73.74
74474;BME280;62922;-6.168;106.796;2023-03-01T04:20:31;101156.16;;;28.88;73.72
74474;BME280;62922;-6.168;106.796;2023-03-01T04:22:59;101150.53;;;28.88;73.80
74474;BME280;62922;-6.168;106.796;2023-03-01T04:25:46;101148.25;;;28.90;73.54
74474;BME280;62922;-6.168;106.796;2023-03-01T04:28:20;101150.72;;;28.91;73.90
74474;BME280;62922;-6.168;106.796;2023-03-01T04:30:46;101142.00;;;28.93;73.76
74474;BME280;62922;-6.168;106.796;2023-03-01T04:33:12;101140.03;;;28.93;73.77
74474;BME280;62922;-6.168;106.796;2023-03-01T04:35:38;101130.13;;;28.96;73.69
74474;BME280;62922;-6.168;106.796;2023-03-01T04:38:04;101139.06;;;28.98;73.62
74474;BME280;62922;-6.168;106.796;2023-03-01T04:40:30;101127.03;;;28.97;73.57
74474;BME280;62922;-6.168;106.796;2023-03-01T04:42:56;101112.66;;;28.99;73.61
74474;BME280;62922;-6.168;106.796;2023-03-01T04:45:22;101114.81;;;29.02;73.36
74474;BME280;62922;-6.168;106.796;2023-03-01T04:47:48;101105.56;;;29.01;73.53
74474;BME280;62922;-6.168;106.796;2023-03-01T04:50:16;101112.84;;;29.02;73.50
74474;BME280;62922;-6.168;106.796;2023-03-01T04:52:45;101093.19;;;29.02;73.23
74474;BME280;62922;-6.168;106.796;2023-03-01T04:55:12;101096.00;;;29.02;73.37
74474;BME280;62922;-6.168;106.796;2023-03-01T04:57:38;101110.56;;;29.04;73.61
74474;BME280;62922;-6.168;106.796;2023-03-01T05:00:04;101095.69;;;29.04;73.73
74474;BME280;62922;-6.168;106.796;2023-03-01T05:02:33;101084.97;;;29.06;73.63
74474;BME280;62922;-6.168;106.796;2023-03-01T05:05:00;101078.50;;;29.05;73.55
74474;BME280;62922;-6.168;106.796;2023-03-01T05:07:25;101080.47;;;29.05;73.24
74474;BME280;62922;-6.168;106.796;2023-03-01T05:09:51;101068.94;;;29.06;73.03
74474;BME280;62922;-6.168;106.796;2023-03-01T05:12:18;101073.41;;;29.07;73.25
74474;BME280;62922;-6.168;106.796;2023-03-01T05:14:44;101060.72;;;29.10;73.30
74474;BME280;62922;-6.168;106.796;2023-03-01T05:17:10;101052.00;;;29.11;73.25
74474;BME280;62922;-6.168;106.796;2023-03-01T05:19:36;101055.31;;;29.13;73.08
74474;BME280;62922;-6.168;106.796;2023-03-01T05:22:01;101055.84;;;29.15;72.87
74474;BME280;62922;-6.168;106.796;2023-03-01T05:24:29;101047.94;;;29.17;73.22
74474;BME280;62922;-6.168;106.796;2023-03-01T05:26:56;101055.22;;;29.18;72.85
74474;BME280;62922;-6.168;106.796;2023-03-01T05:29:22;101039.69;;;29.21;72.83
74474;BME280;62922;-6.168;106.796;2023-03-01T05:31:52;101038.03;;;29.20;72.96
74474;BME280;62922;-6.168;106.796;2023-03-01T05:34:19;101035.22;;;29.20;73.12
74474;BME280;62922;-6.168;106.796;2023-03-01T05:36:48;101026.47;;;29.21;72.85
74474;BME280;62922;-6.168;106.796;2023-03-01T05:39:14;101013.56;;;29.20;72.95
74474;BME280;62922;-6.168;106.796;2023-03-01T05:41:39;101014.41;;;29.21;72.75
74474;BME280;62922;-6.168;106.796;2023-03-01T05:44:06;100999.50;;;29.20;73.00
74474;BME280;62922;-6.168;106.796;2023-03-01T05:46:32;100999.19;;;29.22;72.81
74474;BME280;62922;-6.168;106.796;2023-03-01T05:48:58;100987.94;;;29.22;73.09
74474;BME280;62922;-6.168;106.796;2023-03-01T05:51:23;100984.00;;;29.23;72.74
74474;BME280;62922;-6.168;106.796;2023-03-01T05:53:49;100979.19;;;29.23;72.96
74474;BME280;62922;-6.168;106.796;2023-03-01T05:56:15;100984.50;;;29.25;72.98
74474;BME280;62922;-6.168;106.796;2023-03-01T05:58:41;100974.94;;;29.26;72.91
74474;BME280;62922;-6.168;106.796;2023-03-01T06:01:11;100969.31;;;29.26;72.91
74474;BME280;62922;-6.168;106.796;2023-03-01T06:03:37;100969.31;;;29.26;72.56
74474;BME280;62922;-6.168;106.796;2023-03-01T06:06:05;100961.41;;;29.28;72.90
74474;BME280;62922;-6.168;106.796;2023-03-01T06:08:31;100966.50;;;29.26;72.76
74474;BME280;62922;-6.168;106.796;2023-03-01T06:10:57;100969.31;;;29.26;72.78
74474;BME280;62922;-6.168;106.796;2023-03-01T06:13:23;100964.53;;;29.26;72.80
74474;BME280;62922;-6.168;106.796;2023-03-01T06:15:50;100951.28;;;29.27;73.05
74474;BME280;62922;-6.168;106.796;2023-03-01T06:18:16;100954.09;;;29.27;72.95
74474;BME280;62922;-6.168;106.796;2023-03-01T06:20:41;100954.09;;;29.27;72.78
74474;BME280;62922;-6.168;106.796;2023-03-01T06:23:07;100940.03;;;29.27;72.71
74474;BME280;62922;-6.168;106.796;2023-03-01T06:25:33;100932.78;;;29.26;72.91
74474;BME280;62922;-6.168;106.796;2023-03-01T06:27:59;100933.59;;;29.26;72.92
74474;BME280;62922;-6.168;106.796;2023-03-01T06:30:25;100937.56;;;29.25;73.04
74474;BME280;62922;-6.168;106.796;2023-03-01T06:32:52;100927.16;;;29.26;72.83
74474;BME280;62922;-6.168;106.796;2023-03-01T06:35:18;100939.53;;;29.25;73.20
74474;BME280;62922;-6.168;106.796;2023-03-01T06:37:45;100951.94;;;29.24;73.22
74474;BME280;62922;-6.168;106.796;2023-03-01T06:40:11;100961.19;;;29.24;73.19
74474;BME280;62922;-6.168;106.796;2023-03-01T06:42:39;100943.81;;;29.22;72.94
74474;BME280;62922;-6.168;106.796;2023-03-01T06:45:06;100936.84;;;29.20;73.02
74474;BME280;62922;-6.168;106.796;2023-03-01T06:47:33;100941.44;;;29.16;73.50
74474;BME280;62922;-6.168;106.796;2023-03-01T06:49:59;100940.91;;;29.14;73.83
74474;BME280;62922;-6.168;106.796;2023-03-01T06:52:25;100944.34;;;29.11;73.63
74474;BME280;62922;-6.168;106.796;2023-03-01T06:54:51;100926.66;;;29.10;73.84
74474;BME280;62922;-6.168;106.796;2023-03-01T06:57:17;100951.94;;;29.10;73.67
74474;BME280;62922;-6.168;106.796;2023-03-01T06:59:43;100957.28;;;29.12;73.37
74474;BME280;62922;-6.168;106.796;2023-03-01T07:02:09;100965.72;;;29.12;73.47
74474;BME280;62922;-6.168;106.796;2023-03-01T07:04:35;100958.72;;;29.09;73.38
74474;BME280;62922;-6.168;106.796;2023-03-01T07:07:01;100955.91;;;29.09;73.06
74474;BME280;62922;-6.168;106.796;2023-03-01T07:09:27;100989.63;;;29.09;72.87
74474;BME280;62922;-6.168;106.796;2023-03-01T07:11:53;100980.03;;;29.10;73.11
74474;BME280;62922;-6.168;106.796;2023-03-01T07:14:19;100971.41;;;29.07;73.15
74474;BME280;62922;-6.168;106.796;2023-03-01T07:16:45;100958.00;;;29.04;73.34
74474;BME280;62922;-6.168;106.796;2023-03-01T07:19:11;100939.19;;;29.04;73.39
74474;BME280;62922;-6.168;106.796;2023-03-01T07:21:37;100941.16;;;29.04;73.14
74474;BME280;62922;-6.168;106.796;2023-03-01T07:24:06;100951.22;;;29.05;73.46
74474;BME280;62922;-6.168;106.796;2023-03-01T07:26:32;100950.72;;;29.03;73.17
74474;BME280;62922;-6.168;106.796;2023-03-01T07:28:59;100947.59;;;29.04;73.38
74474;BME280;62922;-6.168;106.796;2023-03-01T07:31:25;100950.41;;;29.04;72.83
74474;BME280;62922;-6.168;106.796;2023-03-01T07:33:53;100958.00;;;29.04;73.40
74474;BME280;62922;-6.168;106.796;2023-03-01T07:36:19;100960.81;;;29.04;73.67
74474;BME280;62922;-6.168;106.796;2023-03-01T07:38:45;100957.16;;;29.03;73.43
74474;BME280;62922;-6.168;106.796;2023-03-01T07:41:14;100959.13;;;29.03;73.43
74474;BME280;62922;-6.168;106.796;2023-03-01T07:43:42;100952.72;;;29.02;73.46
74474;BME280;62922;-6.168;106.796;2023-03-01T07:46:10;100937.81;;;29.02;73.57
74474;BME280;62922;-6.168;106.796;2023-03-01T07:48:37;100924.09;;;29.00;73.60
74474;BME280;62922;-6.168;106.796;2023-03-01T07:51:04;100939.28;;;28.99;73.80
74474;BME280;62922;-6.168;106.796;2023-03-01T07:53:30;100938.16;;;29.00;73.65
74474;BME280;62922;-6.168;106.796;2023-03-01T07:56:05;100932.84;;;28.99;73.44
74474;BME280;62922;-6.168;106.796;2023-03-01T07:58:31;100950.50;;;28.99;73.81
74474;BME280;62922;-6.168;106.796;2023-03-01T08:01:02;100947.72;;;28.99;73.44
74474;BME280;62922;-6.168;106.796;2023-03-01T08:03:28;100955.31;;;28.99;73.54
74474;BME280;62922;-6.168;106.796;2023-03-01T08:05:54;100946.91;;;28.99;73.58
74474;BME280;62922;-6.168;106.796;2023-03-01T08:08:20;100944.09;;;28.99;73.49
74474;BME280;62922;-6.168;106.796;2023-03-01T08:10:46;100920.78;;;28.98;73.55
74474;BME280;62922;-6.168;106.796;2023-03-01T08:13:11;100926.38;;;28.98;73.19
74474;BME280;62922;-6.168;106.796;2023-03-01T08:15:37;100942.09;;;28.99;73.59
74474;BME280;62922;-6.168;106.796;2023-03-01T08:18:03;100941.59;;;28.97;73.83
74474;BME280;62922;-6.168;106.796;2023-03-01T08:20:29;100937.09;;;28.96;73.79
74474;BME280;62922;-6.168;106.796;2023-03-01T08:22:57;100937.94;;;28.97;73.51
74474;BME280;62922;-6.168;106.796;2023-03-01T08:25:23;100931.50;;;28.96;73.59
74474;BME280;62922;-6.168;106.796;2023-03-01T08:27:49;100931.81;;;28.95;73.17
74474;BME280;62922;-6.168;106.796;2023-03-01T08:30:15;100926.19;;;28.95;73.38
74474;BME280;62922;-6.168;106.796;2023-03-01T08:32:41;100936.91;;;28.93;73.44
74474;BME280;62922;-6.168;106.796;2023-03-01T08:35:07;100938.06;;;28.92;73.40
74474;BME280;62922;-6.168;106.796;2023-03-01T08:37:33;100932.47;;;28.92;73.41
74474;BME280;62922;-6.168;106.796;2023-03-01T08:39:59;100930.47;;;28.92;73.47
74474;BME280;62922;-6.168;106.796;2023-03-01T08:42:26;100928.81;;;28.91;73.55
74474;BME280;62922;-6.168;106.796;2023-03-01T08:44:51;100931.63;;;28.91;73.59
74474;BME280;62922;-6.168;106.796;2023-03-01T08:47:18;100944.81;;;28.91;73.38
74474;BME280;62922;-6.168;106.796;2023-03-01T08:49:44;100952.13;;;28.92;73.67
74474;BME280;62922;-6.168;106.796;2023-03-01T08:52:10;100944.81;;;28.91;73.74
74474;BME280;62922;-6.168;106.796;2023-03-01T08:54:38;100946.00;;;28.90;73.55
74474;BME280;62922;-6.168;106.796;2023-03-01T08:57:04;100954.41;;;28.90;73.55
74474;BME280;62922;-6.168;106.796;2023-03-01T08:59:30;100950.75;;;28.89;73.43
74474;BME280;62922;-6.168;106.796;2023-03-01T09:02:00;100949.94;;;28.89;73.34
74474;BME280;62922;-6.168;106.796;2023-03-01T09:04:26;100975.22;;;28.89;73.58
74474;BME280;62922;-6.168;106.796;2023-03-01T09:06:52;100966.78;;;28.89;73.26
74474;BME280;62922;-6.168;106.796;2023-03-01T09:09:18;100968.75;;;28.88;73.57
74474;BME280;62922;-6.168;106.796;2023-03-01T09:11:44;100959.50;;;28.88;73.41
74474;BME280;62922;-6.168;106.796;2023-03-01T09:14:11;100973.88;;;28.86;73.61
74474;BME280;62922;-6.168;106.796;2023-03-01T09:16:37;100975.84;;;28.86;73.54
74474;BME280;62922;-6.168;106.796;2023-03-01T09:19:06;100960.97;;;28.85;73.87
74474;BME280;62922;-6.168;106.796;2023-03-01T09:21:32;100961.28;;;28.84;73.90
74474;BME280;62922;-6.168;106.796;2023-03-01T09:23:58;100966.06;;;28.83;73.90
74474;BME280;62922;-6.168;106.796;2023-03-01T09:26:24;100968.88;;;28.83;74.18
74474;BME280;62922;-6.168;106.796;2023-03-01T09:28:51;100965.22;;;28.83;74.36
74474;BME280;62922;-6.168;106.796;2023-03-01T09:31:18;100959.13;;;28.81;74.43
74474;BME280;62922;-6.168;106.796;2023-03-01T09:33:45;100964.72;;;28.81;74.25
74474;BME280;62922;-6.168;106.796;2023-03-01T09:36:12;100970.34;;;28.81;74.36
74474;BME280;62922;-6.168;106.796;2023-03-01T09:38:38;100977.09;;;28.80;74.61
74474;BME280;62922;-6.168;106.796;2023-03-01T09:43:43;100975.44;;;28.79;74.12
74474;BME280;62922;-6.168;106.796;2023-03-01T09:46:11;100981.06;;;28.79;74.56
74474;BME280;62922;-6.168;106.796;2023-03-01T09:48:43;100982.19;;;28.77;74.42
74474;BME280;62922;-6.168;106.796;2023-03-01T09:51:13;100994.28;;;28.78;74.17
74474;BME280;62922;-6.168;106.796;2023-03-01T09:53:40;100991.47;;;28.78;74.21
74474;BME280;62922;-6.168;106.796;2023-03-01T09:56:14;100999.03;;;28.77;74.11
74474;BME280;62922;-6.168;106.796;2023-03-01T10:03:58;100988.97;;;28.77;74.01
74474;BME280;62922;-6.168;106.796;2023-03-01T10:06:26;100994.59;;;28.77;74.20
74474;BME280;62922;-6.168;106.796;2023-03-01T10:08:57;100991.78;;;28.77;73.90
74474;BME280;62922;-6.168;106.796;2023-03-01T10:11:26;100990.94;;;28.76;74.02
74474;BME280;62922;-6.168;106.796;2023-03-01T10:13:56;100994.59;;;28.77;74.00
74474;BME280;62922;-6.168;106.796;2023-03-01T10:16:26;100992.91;;;28.75;73.77
74474;BME280;62922;-6.168;106.796;2023-03-01T10:18:57;100997.72;;;28.75;74.12
74474;BME280;62922;-6.168;106.796;2023-03-01T10:21:25;100991.25;;;28.74;74.01
74474;BME280;62922;-6.168;106.796;2023-03-01T10:23:52;100991.59;;;28.73;73.92
74474;BME280;62922;-6.168;106.796;2023-03-01T10:31:33;101014.84;;;28.73;74.01
74474;BME280;62922;-6.168;106.796;2023-03-01T10:34:11;101007.91;;;28.71;74.21
74474;BME280;62922;-6.168;106.796;2023-03-01T10:36:38;101013.53;;;28.71;74.11
74474;BME280;62922;-6.168;106.796;2023-03-01T10:39:11;101017.78;;;28.68;73.99
74474;BME280;62922;-6.168;106.796;2023-03-01T10:41:37;101014.97;;;28.68;74.29
74474;BME280;62922;-6.168;106.796;2023-03-01T10:44:10;101012.16;;;28.68;73.90
74474;BME280;62922;-6.168;106.796;2023-03-01T10:46:59;101017.78;;;28.68;73.90
74474;BME280;62922;-6.168;106.796;2023-03-01T10:49:26;101020.91;;;28.67;73.79
74474;BME280;62922;-6.168;106.796;2023-03-01T10:51:54;101021.75;;;28.67;73.90
74474;BME280;62922;-6.168;106.796;2023-03-01T10:54:25;101020.91;;;28.67;73.74
74474;BME280;62922;-6.168;106.796;2023-03-01T10:56:53;101030.50;;;28.66;73.94
74474;BME280;62922;-6.168;106.796;2023-03-01T10:59:29;101033.28;;;28.66;74.14
74474;BME280;62922;-6.168;106.796;2023-03-01T11:07:27;101044.00;;;28.64;73.82
74474;BME280;62922;-6.168;106.796;2023-03-01T11:09:53;101042.31;;;28.63;74.13
74474;BME280;62922;-6.168;106.796;2023-03-01T11:12:22;101047.94;;;28.63;73.98
74474;BME280;62922;-6.168;106.796;2023-03-01T11:14:51;101049.09;;;28.62;74.22
74474;BME280;62922;-6.168;106.796;2023-03-01T11:17:28;101057.53;;;28.62;74.05
74474;BME280;62922;-6.168;106.796;2023-03-01T11:22:44;101060.66;;;28.60;74.00
74474;BME280;62922;-6.168;106.796;2023-03-01T11:25:11;101060.66;;;28.60;73.75
74474;BME280;62922;-6.168;106.796;2023-03-01T11:27:43;101062.63;;;28.60;73.88
74474;BME280;62922;-6.168;106.796;2023-03-01T11:32:39;101072.16;;;28.59;74.15
74474;BME280;62922;-6.168;106.796;2023-03-01T11:40:13;101084.56;;;28.58;73.93
74474;BME280;62922;-6.168;106.796;2023-03-01T11:45:15;101082.06;;;28.56;74.04
74474;BME280;62922;-6.168;106.796;2023-03-01T12:00:31;101075.91;;;28.54;74.18
74474;BME280;62922;-6.168;106.796;2023-03-01T12:05:59;101085.75;;;28.52;74.19
74474;BME280;62922;-6.168;106.796;2023-03-01T12:10:57;101096.13;;;28.51;73.97
74474;BME280;62922;-6.168;106.796;2023-03-01T12:13:36;101095.34;;;28.51;73.79
74474;BME280;62922;-6.168;106.796;2023-03-01T12:26:03;101120.91;;;28.49;74.29
74474;BME280;62922;-6.168;106.796;2023-03-01T12:50:51;101127.28;;;28.68;76.53
74474;BME280;62922;-6.168;106.796;2023-03-01T12:55:46;101141.97;;;28.65;76.64
74474;BME280;62922;-6.168;106.796;2023-03-01T13:05:42;101157.44;;;28.63;76.11
74474;BME280;62922;-6.168;106.796;2023-03-01T13:08:18;101156.91;;;28.61;75.83
74474;BME280;62922;-6.168;106.796;2023-03-01T13:10:50;101163.69;;;28.60;75.90
74474;BME280;62922;-6.168;106.796;2023-03-01T13:13:20;101163.16;;;28.58;76.06
74474;BME280;62922;-6.168;106.796;2023-03-01T13:15:46;101169.63;;;28.58;75.89
74474;BME280;62922;-6.168;106.796;2023-03-01T13:23:09;101189.88;;;28.55;76.05
74474;BME280;62922;-6.168;106.796;2023-03-01T13:28:46;101211.00;;;28.53;75.92
74474;BME280;62922;-6.168;106.796;2023-03-01T13:30:51;101215.78;;;28.52;75.94
74474;BME280;62922;-6.168;106.796;2023-03-01T13:35:45;101224.47;;;28.51;76.22
74474;BME280;62922;-6.168;106.796;2023-03-01T13:45:38;101234.31;;;28.48;76.12
74474;BME280;62922;-6.168;106.796;2023-03-01T13:50:35;101236.59;;;28.46;75.63
74474;BME280;62922;-6.168;106.796;2023-03-01T13:53:04;101242.53;;;28.45;75.93
74474;BME280;62922;-6.168;106.796;2023-03-01T13:58:01;101231.63;;;28.43;76.05
74474;BME280;62922;-6.168;106.796;2023-03-01T14:00:32;101231.63;;;28.43;75.86
74474;BME280;62922;-6.168;106.796;2023-03-01T14:03:01;101235.53;;;28.42;75.71
74474;BME280;62922;-6.168;106.796;2023-03-01T14:05:29;101235.53;;;28.42;75.69
74474;BME280;62922;-6.168;106.796;2023-03-01T14:07:55;101238.34;;;28.42;75.69
74474;BME280;62922;-6.168;106.796;2023-03-01T14:10:21;101233.88;;;28.41;75.60
74474;BME280;62922;-6.168;106.796;2023-03-01T14:12:51;101240.66;;;28.40;75.44
74474;BME280;62922;-6.168;106.796;2023-03-01T14:20:18;101258.63;;;28.39;75.32
74474;BME280;62922;-6.168;106.796;2023-03-01T14:22:45;101264.53;;;28.38;75.88
74474;BME280;62922;-6.168;106.796;2023-03-01T14:25:23;101269.00;;;28.39;75.78
74474;BME280;62922;-6.168;106.796;2023-03-01T14:27:54;101272.97;;;28.38;75.69
74474;BME280;62922;-6.168;106.796;2023-03-01T14:30:22;101265.38;;;28.38;75.51
74474;BME280;62922;-6.168;106.796;2023-03-01T14:37:45;101272.44;;;28.36;75.34
74474;BME280;62922;-6.168;106.796;2023-03-01T14:40:19;101268.78;;;28.35;75.35
74474;BME280;62922;-6.168;106.796;2023-03-01T14:42:45;101274.72;;;28.34;75.52
74474;BME280;62922;-6.168;106.796;2023-03-01T14:45:12;101283.13;;;28.34;75.83
74474;BME280;62922;-6.168;106.796;2023-03-01T14:47:41;101286.78;;;28.34;75.66
74474;BME280;62922;-6.168;106.796;2023-03-01T14:50:15;101284.28;;;28.33;75.62
74474;BME280;62922;-6.168;106.796;2023-03-01T14:52:44;101283.44;;;28.32;75.47